Time;durP1;ratioP1;P1;durP2;ratioP2;P2;SDS_P1;SDS_P2;PMS_P1;PMS_P2;Temp;Humidity;BMP_temperature;BMP_pressure;BME280_temperature;BME280_humidity;BME280_pressure;Samples;Min_cycle;Max_cycle;Signal;HPM_P1;HPM_P2
2020/12/21 00:00:28;;;;;;;38.60;16.10;;;2.70;99.90;;;;;;4159142;28;20636;-43
2020/12/21 00:02:29;;;;;;;31.27;15.90;;;2.70;99.90;;;;;;4155741;28;20387;-41
2020/12/21 00:04:30;;;;;;;34.50;14.30;;;2.70;99.90;;;;;;4159051;28;20328;-48
2020/12/21 00:06:31;;;;;;;30.40;15.10;;;2.60;99.90;;;;;;4158145;28;20332;-44
2020/12/21 00:08:32;;;;;;;34.60;15.50;;;2.70;99.90;;;;;;4159557;28;20740;-45
2020/12/21 00:10:34;;;;;;;34.43;16.50;;;2.70;99.90;;;;;;4157525;28;20270;-43
2020/12/21 00:12:35;;;;;;;33.03;14.97;;;2.60;99.90;;;;;;4159419;28;20275;-45
2020/12/21 00:14:37;;;;;;;35.97;15.03;;;2.70;99.90;;;;;;4157429;28;20267;-48
2020/12/21 00:16:39;;;;;;;29.10;14.40;;;2.60;99.90;;;;;;4158865;28;20270;-44
2020/12/21 00:18:40;;;;;;;31.97;15.53;;;2.60;99.90;;;;;;4157274;28;20274;-45
2020/12/21 00:20:41;;;;;;;32.30;15.10;;;2.60;99.90;;;;;;4158429;28;20287;-49
2020/12/21 00:22:42;;;;;;;30.27;15.27;;;2.60;99.90;;;;;;4158699;28;20348;-43
2020/12/21 00:24:45;;;;;;;32.60;14.07;;;2.60;99.90;;;;;;4157605;28;20270;-43
2020/12/21 00:26:51;;;;;;;33.27;15.33;;;2.60;99.90;;;;;;4158694;28;20746;-44
2020/12/21 00:28:52;;;;;;;28.00;13.87;;;2.60;99.90;;;;;;4152677;28;20326;-43
2020/12/21 00:30:54;;;;;;;34.63;15.83;;;2.60;99.90;;;;;;4142446;28;20811;-46
2020/12/21 00:32:55;;;;;;;34.93;15.20;;;2.60;99.90;;;;;;4140645;28;20283;-45
2020/12/21 00:34:56;;;;;;;31.83;15.00;;;2.60;99.90;;;;;;4142712;28;20272;-45
2020/12/21 00:36:57;;;;;;;32.73;16.10;;;2.60;99.90;;;;;;4140463;28;20272;-43
2020/12/21 00:38:58;;;;;;;27.03;14.53;;;2.60;99.90;;;;;;4142058;28;20272;-42
2020/12/21 00:41:05;;;;;;;29.60;15.50;;;2.50;99.90;;;;;;4140458;28;20821;-43
2020/12/21 00:43:07;;;;;;;32.63;15.97;;;2.50;99.90;;;;;;4142477;28;20358;-43
2020/12/21 00:45:08;;;;;;;30.53;15.47;;;2.50;99.90;;;;;;4155796;28;20337;-45
2020/12/21 00:47:10;;;;;;;30.27;14.67;;;2.50;99.90;;;;;;4158571;28;20361;-42
2020/12/21 00:49:11;;;;;;;34.17;16.63;;;2.50;99.90;;;;;;4156908;28;20268;-46
2020/12/21 00:51:14;;;;;;;33.07;14.97;;;2.60;99.90;;;;;;4158497;28;20800;-46
2020/12/21 00:53:15;;;;;;;31.27;15.37;;;2.50;99.90;;;;;;4156610;28;20274;-41
2020/12/21 00:55:16;;;;;;;32.37;16.03;;;2.50;99.90;;;;;;4157885;28;20316;-44
2020/12/21 00:57:17;;;;;;;33.33;16.03;;;2.50;99.90;;;;;;4157187;28;20316;-47
2020/12/21 00:59:18;;;;;;;32.87;16.07;;;2.50;99.90;;;;;;4157009;28;20255;-45
2020/12/21 01:01:28;;;;;;;31.93;15.93;;;2.50;99.90;;;;;;4157815;28;20809;-46
2020/12/21 01:03:29;;;;;;;27.38;14.98;;;2.50;99.90;;;;;;4156441;28;20302;-46
2020/12/21 01:05:30;;;;;;;32.60;15.70;;;2.50;99.90;;;;;;4158258;28;20030;-41
2020/12/21 01:07:32;;;;;;;33.80;16.40;;;2.50;99.90;;;;;;4157287;28;20267;-44
2020/12/21 01:09:33;;;;;;;37.60;17.00;;;2.50;99.90;;;;;;4157650;28;20267;-42
2020/12/21 01:11:34;;;;;;;31.80;15.47;;;2.50;99.90;;;;;;4156454;28;21326;-44
2020/12/21 01:13:35;;;;;;;30.97;15.90;;;2.50;99.90;;;;;;4154340;28;20329;-43
2020/12/21 01:15:37;;;;;;;31.57;15.90;;;2.50;99.90;;;;;;4139894;28;20338;-40
2020/12/21 01:17:38;;;;;;;31.73;16.40;;;2.40;99.90;;;;;;4140912;28;20333;-44
2020/12/21 01:19:39;;;;;;;29.03;14.90;;;2.50;99.90;;;;;;4139634;28;20280;-44
2020/12/21 01:21:40;;;;;;;28.40;15.20;;;2.40;99.90;;;;;;4148403;28;20287;-44
2020/12/21 01:23:41;;;;;;;32.53;15.63;;;2.40;99.90;;;;;;4156362;28;20286;-45
2020/12/21 01:25:42;;;;;;;26.97;14.00;;;2.40;99.90;;;;;;4157557;28;20349;-44
2020/12/21 01:27:43;;;;;;;26.47;12.67;;;2.40;99.90;;;;;;4157176;28;20281;-44
2020/12/21 01:29:44;;;;;;;25.60;13.67;;;2.40;99.90;;;;;;4156887;28;20666;-46
2020/12/21 01:31:45;;;;;;;25.07;13.20;;;2.40;99.90;;;;;;4155653;28;20279;-43
2020/12/21 01:33:48;;;;;;;23.13;12.13;;;2.40;99.90;;;;;;4154978;28;20283;-43
2020/12/21 01:35:49;;;;;;;22.77;12.17;;;2.40;99.90;;;;;;4157446;28;20341;-43
2020/12/21 01:37:53;;;;;;;21.53;12.17;;;2.40;99.90;;;;;;4156419;28;20481;-41
2020/12/21 01:39:54;;;;;;;24.03;11.63;;;2.40;99.90;;;;;;4158100;28;20274;-47
2020/12/21 01:41:55;;;;;;;24.20;12.13;;;2.30;99.90;;;;;;4156088;28;20364;-44
2020/12/21 01:43:57;;;;;;;22.93;10.97;;;2.40;99.90;;;;;;4157763;28;20310;-46
2020/12/21 01:46:16;;;;;;;19.90;10.87;;;2.30;99.90;;;;;;4155324;28;20777;-44
2020/12/21 01:48:17;;;;;;;24.93;12.27;;;2.30;99.90;;;;;;4157123;28;20309;-45
2020/12/21 01:50:18;;;;;;;22.23;11.60;;;2.30;99.90;;;;;;4155814;28;20336;-45
2020/12/21 01:52:19;;;;;;;24.77;10.57;;;2.30;99.90;;;;;;4156604;28;20345;-44
2020/12/21 01:54:20;;;;;;;23.50;10.83;;;2.30;99.90;;;;;;4156017;28;20274;-46
2020/12/21 01:56:23;;;;;;;20.33;10.23;;;2.30;99.90;;;;;;4157406;28;20757;-44
2020/12/21 01:58:24;;;;;;;20.43;10.43;;;2.30;99.90;;;;;;4156460;28;20273;-43
2020/12/21 02:00:25;;;;;;;20.20;10.37;;;2.30;99.90;;;;;;4157190;28;20796;-48
2020/12/21 02:02:26;;;;;;;18.80;10.03;;;2.30;99.90;;;;;;4138844;28;20335;-46
2020/12/21 02:04:27;;;;;;;20.70;11.37;;;2.30;99.90;;;;;;4155998;28;20279;-49
2020/12/21 02:06:28;;;;;;;20.50;11.00;;;2.30;99.90;;;;;;4156798;28;20341;-43
2020/12/21 02:08:29;;;;;;;21.53;10.53;;;2.30;99.90;;;;;;4155549;28;20301;-44
2020/12/21 02:10:31;;;;;;;19.37;10.10;;;2.20;99.90;;;;;;4157782;28;20259;-50
2020/12/21 02:12:32;;;;;;;26.57;11.77;;;2.30;99.90;;;;;;4139932;28;20695;-47
2020/12/21 02:14:35;;;;;;;22.67;10.17;;;2.20;99.90;;;;;;4140880;28;20287;-46
2020/12/21 02:16:37;;;;;;;20.03;10.43;;;2.20;99.90;;;;;;4138951;28;20263;-48
2020/12/21 02:18:38;;;;;;;21.80;10.53;;;2.20;99.90;;;;;;4140409;28;20279;-46
2020/12/21 02:20:39;;;;;;;23.77;11.13;;;2.20;99.90;;;;;;4139780;28;20263;-46
2020/12/21 02:22:40;;;;;;;18.33;9.27;;;2.20;99.90;;;;;;4140899;28;20271;-45
2020/12/21 02:24:41;;;;;;;17.53;9.40;;;2.30;99.90;;;;;;4139205;28;20821;-45
2020/12/21 02:26:43;;;;;;;18.83;9.03;;;2.20;99.90;;;;;;4140865;28;20756;-44
2020/12/21 02:28:49;;;;;;;17.70;9.17;;;2.20;99.90;;;;;;4139279;28;20344;-43
2020/12/21 02:30:50;;;;;;;19.57;9.43;;;2.20;99.90;;;;;;4140693;28;20751;-44
2020/12/21 02:32:51;;;;;;;17.87;9.53;;;2.20;99.90;;;;;;4139705;28;20278;-46
2020/12/21 02:34:52;;;;;;;18.23;9.67;;;2.20;99.90;;;;;;4140163;28;20317;-54
2020/12/21 02:36:56;;;;;;;17.30;9.00;;;2.20;99.90;;;;;;4145447;28;20267;-45
2020/12/21 02:38:57;;;;;;;14.40;8.47;;;2.20;99.90;;;;;;4155910;28;20270;-48
2020/12/21 02:40:58;;;;;;;18.90;9.80;;;2.20;99.90;;;;;;4156340;28;20275;-42
2020/12/21 02:43:00;;;;;;;20.77;10.83;;;2.30;99.90;;;;;;4155143;28;20376;-47
2020/12/21 02:45:03;;;;;;;20.87;8.83;;;2.20;99.90;;;;;;4156810;28;20317;-46
2020/12/21 02:47:04;;;;;;;18.07;8.60;;;2.20;99.90;;;;;;4155112;28;20761;-46
2020/12/21 02:49:06;;;;;;;17.77;8.63;;;2.20;99.90;;;;;;4156693;28;20266;-44
2020/12/21 02:51:08;;;;;;;14.83;7.90;;;2.20;99.90;;;;;;4155024;28;20267;-44
2020/12/21 02:53:14;;;;;;;15.43;8.60;;;2.20;99.90;;;;;;4156860;28;20356;-45
2020/12/21 02:55:16;;;;;;;16.10;8.47;;;2.20;99.90;;;;;;4155562;28;20258;-42
2020/12/21 02:57:17;;;;;;;16.90;7.97;;;2.20;99.90;;;;;;4156090;28;20262;-44
2020/12/21 02:59:18;;;;;;;15.00;7.93;;;2.20;99.90;;;;;;4154364;28;20263;-45
2020/12/21 03:01:19;;;;;;;17.80;8.27;;;2.20;99.90;;;;;;4155930;28;20275;-44
2020/12/21 03:03:20;;;;;;;17.33;8.10;;;2.20;99.90;;;;;;4155652;28;20294;-52
2020/12/21 03:05:21;;;;;;;17.50;9.07;;;2.20;99.90;;;;;;4154420;28;20892;-46
2020/12/21 03:07:22;;;;;;;15.10;7.87;;;2.20;99.90;;;;;;4155538;28;20309;-44
2020/12/21 03:09:24;;;;;;;20.57;8.07;;;2.20;99.90;;;;;;4155202;28;21230;-44
2020/12/21 03:11:25;;;;;;;16.97;8.17;;;2.20;99.90;;;;;;4155214;28;20271;-46
2020/12/21 03:13:26;;;;;;;17.47;8.80;;;2.20;99.90;;;;;;4155130;28;20316;-45
2020/12/21 03:15:27;;;;;;;15.13;8.30;;;2.20;99.90;;;;;;4142888;28;20287;-48
2020/12/21 03:17:28;;;;;;;16.53;7.87;;;2.20;99.90;;;;;;4138702;28;20283;-50
2020/12/21 03:19:29;;;;;;;15.07;8.07;;;2.20;99.90;;;;;;4140168;28;20318;-46
2020/12/21 03:21:31;;;;;;;20.43;9.17;;;2.20;99.90;;;;;;4141743;28;20812;-44
2020/12/21 03:23:32;;;;;;;16.37;8.27;;;2.20;99.90;;;;;;4143800;28;20633;-47
2020/12/21 03:25:33;;;;;;;17.93;8.60;;;2.20;99.90;;;;;;4141769;28;20597;-44
2020/12/21 03:27:35;;;;;;;16.90;8.10;;;2.20;99.90;;;;;;4143085;28;20259;-44
2020/12/21 03:29:36;;;;;;;17.43;7.60;;;2.20;99.90;;;;;;4141476;28;20393;-40
2020/12/21 03:31:37;;;;;;;20.70;8.83;;;2.20;99.90;;;;;;4143173;28;20259;-45
2020/12/21 03:33:39;;;;;;;16.90;8.00;;;2.20;99.90;;;;;;4142292;28;20256;-57
2020/12/21 03:35:40;;;;;;;14.50;7.60;;;2.20;99.90;;;;;;4143224;28;20259;-47
2020/12/21 03:37:41;;;;;;;20.60;8.53;;;2.20;99.90;;;;;;4142235;28;20806;-46
2020/12/21 03:39:42;;;;;;;16.53;8.30;;;2.20;99.90;;;;;;4142589;28;20325;-45
2020/12/21 03:41:43;;;;;;;16.63;7.70;;;2.20;99.90;;;;;;4142162;28;20292;-45
2020/12/21 03:43:44;;;;;;;15.03;8.43;;;2.20;99.90;;;;;;4141703;28;20782;-43
2020/12/21 03:45:46;;;;;;;16.90;8.53;;;2.30;99.90;;;;;;4142537;28;20317;-44
2020/12/21 03:47:47;;;;;;;15.67;8.57;;;2.30;99.90;;;;;;4141520;28;20271;-54
2020/12/21 03:49:48;;;;;;;15.63;8.13;;;2.30;99.90;;;;;;4143410;28;20267;-46
2020/12/21 03:51:49;;;;;;;15.20;8.07;;;2.30;99.90;;;;;;4151675;28;20325;-46
2020/12/21 03:53:50;;;;;;;14.70;7.47;;;2.30;99.90;;;;;;4159599;28;20797;-45
2020/12/21 03:55:52;;;;;;;15.87;8.20;;;2.30;99.90;;;;;;4157673;28;20953;-41
2020/12/21 03:57:53;;;;;;;13.60;7.60;;;2.30;99.90;;;;;;4159021;28;20294;-42
2020/12/21 03:59:54;;;;;;;15.97;7.63;;;2.30;99.90;;;;;;4157802;28;20267;-43
2020/12/21 04:01:55;;;;;;;20.00;9.47;;;2.30;99.90;;;;;;4156305;28;20708;-42
2020/12/21 04:03:57;;;;;;;15.17;8.20;;;2.30;99.90;;;;;;4156937;28;20337;-42
2020/12/21 04:05:58;;;;;;;18.53;7.83;;;2.30;99.90;;;;;;4159117;28;20274;-43
2020/12/21 04:07:59;;;;;;;13.37;7.07;;;2.30;99.90;;;;;;4158046;28;20263;-45
2020/12/21 04:10:00;;;;;;;15.83;7.90;;;2.30;99.90;;;;;;4158133;28;20275;-45
2020/12/21 04:12:01;;;;;;;16.13;6.93;;;2.30;99.90;;;;;;4158668;28;20319;-47
2020/12/21 04:14:03;;;;;;;20.23;8.47;;;2.30;99.90;;;;;;4158123;28;20297;-45
2020/12/21 04:16:05;;;;;;;13.70;6.73;;;2.30;99.90;;;;;;4158448;28;20305;-46
2020/12/21 04:18:06;;;;;;;18.17;8.43;;;2.30;99.90;;;;;;4157465;28;20336;-46
2020/12/21 04:20:07;;;;;;;17.53;8.00;;;2.30;99.90;;;;;;4141416;28;20275;-46
2020/12/21 04:22:08;;;;;;;15.60;8.23;;;2.30;99.90;;;;;;4157612;28;20313;-45
2020/12/21 04:24:09;;;;;;;20.90;8.83;;;2.30;99.90;;;;;;4158079;28;20295;-46
2020/12/21 04:26:10;;;;;;;16.13;8.90;;;2.40;99.90;;;;;;4157409;28;20279;-46
2020/12/21 04:28:11;;;;;;;18.37;8.60;;;2.40;99.90;;;;;;4158575;28;20286;-45
2020/12/21 04:30:13;;;;;;;17.93;8.70;;;2.40;99.90;;;;;;4154104;28;20861;-45
2020/12/21 04:32:14;;;;;;;16.17;8.57;;;2.40;99.90;;;;;;4141486;28;20326;-46
2020/12/21 04:34:15;;;;;;;14.77;7.57;;;2.30;99.90;;;;;;4141611;28;20291;-50
2020/12/21 04:36:16;;;;;;;15.07;7.13;;;2.30;99.90;;;;;;4125109;28;20276;-46
2020/12/21 04:38:17;;;;;;;14.63;7.87;;;2.30;99.90;;;;;;4140562;28;20251;-45
2020/12/21 04:40:19;;;;;;;16.70;7.20;;;2.30;99.90;;;;;;4141559;28;20287;-47
2020/12/21 04:42:24;;;;;;;16.90;7.77;;;2.30;99.90;;;;;;4156313;28;20321;-44
2020/12/21 04:44:26;;;;;;;22.17;9.30;;;2.30;99.90;;;;;;4157427;28;20809;-45
2020/12/21 04:46:28;;;;;;;17.57;7.93;;;2.30;99.90;;;;;;4155864;28;20301;-46
2020/12/21 04:48:30;;;;;;;14.67;7.07;;;2.30;99.90;;;;;;4157201;28;20254;-49
2020/12/21 04:50:32;;;;;;;14.00;7.37;;;2.30;99.90;;;;;;4155818;28;20263;-51
2020/12/21 04:52:39;;;;;;;16.47;7.30;;;2.40;99.90;;;;;;4146598;28;20278;-46
2020/12/21 04:54:41;;;;;;;12.53;6.90;;;2.30;99.90;;;;;;4158319;28;20267;-47
2020/12/21 04:56:44;;;;;;;14.10;7.90;;;2.30;99.90;;;;;;4138565;28;20279;-44
2020/12/21 04:58:45;;;;;;;14.07;7.10;;;2.30;99.90;;;;;;4140233;28;20275;-43
2020/12/21 05:00:46;;;;;;;13.40;6.87;;;2.30;99.90;;;;;;4156789;28;21088;-44
2020/12/21 05:02:48;;;;;;;14.83;7.50;;;2.30;99.90;;;;;;4158257;28;20271;-42
2020/12/21 05:04:52;;;;;;;13.83;7.63;;;2.30;99.90;;;;;;4156265;28;20329;-45
2020/12/21 05:06:56;;;;;;;14.67;5.97;;;2.20;99.90;;;;;;4157720;28;20734;-45
2020/12/21 05:09:08;;;;;;;19.50;7.07;;;2.20;99.90;;;;;;4156730;28;20274;-50
2020/12/21 05:11:10;;;;;;;13.30;7.07;;;2.20;99.90;;;;;;4157510;28;20279;-46
2020/12/21 05:13:12;;;;;;;14.80;7.60;;;2.20;99.90;;;;;;4155842;28;20877;-44
2020/12/21 05:15:15;;;;;;;17.27;7.60;;;2.20;99.90;;;;;;4149909;28;20283;-46
2020/12/21 05:17:17;;;;;;;18.27;7.60;;;2.20;99.90;;;;;;4140267;28;20301;-48
2020/12/21 05:19:21;;;;;;;15.20;7.37;;;2.20;99.90;;;;;;4122946;28;20334;-50
2020/12/21 05:21:27;;;;;;;17.00;7.67;;;2.20;99.90;;;;;;4142750;28;20333;-50
2020/12/21 05:23:28;;;;;;;14.40;7.40;;;2.20;99.90;;;;;;4146352;28;20354;-53
2020/12/21 05:25:30;;;;;;;17.03;7.60;;;2.20;99.90;;;;;;4140587;28;20679;-50
2020/12/21 05:27:31;;;;;;;17.13;7.93;;;2.10;99.90;;;;;;4140495;28;20263;-45
2020/12/21 05:29:32;;;;;;;20.97;8.70;;;2.10;99.90;;;;;;4140978;28;20366;-44
2020/12/21 05:31:34;;;;;;;17.57;7.63;;;2.10;99.90;;;;;;4139677;28;20357;-46
2020/12/21 05:33:41;;;;;;;19.57;8.37;;;2.10;99.90;;;;;;4141213;28;20267;-43
2020/12/21 05:35:42;;;;;;;19.17;8.23;;;2.20;99.90;;;;;;4145165;28;20274;-52
2020/12/21 05:37:43;;;;;;;16.00;6.87;;;2.20;99.90;;;;;;4157787;28;20263;-44
2020/12/21 05:39:52;;;;;;;19.50;8.77;;;2.10;99.90;;;;;;4149544;28;20275;-53
2020/12/21 05:41:54;;;;;;;19.03;8.20;;;2.10;99.90;;;;;;4140826;28;20337;-43
2020/12/21 05:43:59;;;;;;;15.23;8.00;;;2.10;99.90;;;;;;4139585;28;20837;-50
2020/12/21 05:46:07;;;;;;;16.90;8.50;;;2.10;99.90;;;;;;4140992;28;20271;-50
2020/12/21 05:48:09;;;;;;;20.20;8.43;;;2.10;99.90;;;;;;4139579;28;20279;-45
2020/12/21 05:50:10;;;;;;;15.73;7.47;;;2.10;99.90;;;;;;4140757;28;20287;-47
2020/12/21 05:52:49;;;;;;;16.20;7.40;;;2.10;99.90;;;;;;4139269;28;20276;-51
2020/12/21 05:54:52;;;;;;;36.67;15.50;;;2.00;99.90;;;;;;4114403;28;20291;-44
2020/12/21 05:56:54;;;;;;;32.73;13.70;;;2.00;99.90;;;;;;4139360;28;20652;-45
2020/12/21 05:58:57;;;;;;;39.10;14.17;;;2.00;99.90;;;;;;4140965;28;20815;-53
2020/12/21 06:01:04;;;;;;;21.70;9.97;;;2.00;99.90;;;;;;4139713;28;20393;-49
2020/12/21 06:03:08;;;;;;;16.10;7.57;;;2.00;99.90;;;;;;4141046;28;20774;-44
2020/12/21 06:05:11;;;;;;;14.27;7.30;;;2.00;99.90;;;;;;4140368;28;20291;-42
2020/12/21 06:07:22;;;;;;;15.17;8.03;;;1.90;99.90;;;;;;4140686;28;20356;-42
2020/12/21 06:09:29;;;;;;;16.70;8.37;;;1.90;99.90;;;;;;4139480;28;20282;-44
2020/12/21 06:11:32;;;;;;;18.67;8.70;;;1.90;99.90;;;;;;4139647;28;20330;-44
2020/12/21 06:13:36;;;;;;;17.13;8.43;;;1.90;99.90;;;;;;4138992;28;20333;-43
2020/12/21 06:15:38;;;;;;;19.60;8.37;;;2.00;99.90;;;;;;4140489;28;20275;-46
2020/12/21 06:17:39;;;;;;;15.50;8.73;;;2.00;99.90;;;;;;4139040;28;20900;-47
2020/12/21 06:19:40;;;;;;;17.97;8.00;;;2.00;99.90;;;;;;4139132;28;20334;-43
2020/12/21 06:21:54;;;;;;;16.70;8.17;;;2.00;99.90;;;;;;4139538;28;20271;-49
2020/12/21 06:23:56;;;;;;;22.47;8.83;;;2.00;99.90;;;;;;4138893;28;20295;-43
2020/12/21 06:26:12;;;;;;;16.70;9.03;;;2.00;99.90;;;;;;4140164;28;20275;-47
2020/12/21 06:28:13;;;;;;;16.53;9.63;;;2.00;99.90;;;;;;4139440;28;20294;-43
2020/12/21 06:30:16;;;;;;;16.07;8.60;;;2.00;99.90;;;;;;4139783;28;20267;-45
2020/12/21 06:32:17;;;;;;;18.30;9.30;;;2.00;99.90;;;;;;4138472;28;20276;-49
2020/12/21 06:34:31;;;;;;;13.87;7.37;;;1.90;99.90;;;;;;4140525;28;20279;-44
2020/12/21 06:36:33;;;;;;;20.33;7.63;;;2.00;99.90;;;;;;4138509;28;20275;-45
2020/12/21 06:38:48;;;;;;;11.97;6.97;;;2.00;99.90;;;;;;4139391;28;20322;-46
2020/12/21 06:40:49;;;;;;;14.03;7.10;;;2.00;99.90;;;;;;4138587;28;20671;-52
2020/12/21 06:42:50;;;;;;;15.43;8.30;;;2.00;99.90;;;;;;4140268;28;20309;-41
2020/12/21 06:44:54;;;;;;;15.33;8.10;;;2.00;99.90;;;;;;4137648;28;20609;-46
2020/12/21 06:46:56;;;;;;;14.33;7.70;;;2.00;99.90;;;;;;4139895;28;20287;-47
2020/12/21 06:49:08;;;;;;;15.77;8.27;;;2.00;99.90;;;;;;4138391;28;20279;-46
2020/12/21 06:51:17;;;;;;;11.67;6.70;;;2.00;99.90;;;;;;4139618;28;20271;-46
2020/12/21 06:53:18;;;;;;;17.13;7.63;;;2.00;99.90;;;;;;4138861;28;20806;-47
2020/12/21 06:55:19;;;;;;;15.73;8.33;;;2.00;99.90;;;;;;4139756;28;20317;-46
2020/12/21 06:57:20;;;;;;;13.93;7.60;;;2.00;99.90;;;;;;4138468;28;20281;-43
2020/12/21 06:59:23;;;;;;;19.97;8.30;;;2.00;99.90;;;;;;4139564;28;20283;-42
2020/12/21 07:01:26;;;;;;;18.10;7.87;;;2.00;99.90;;;;;;4138221;28;21627;-47
2020/12/21 07:03:28;;;;;;;20.33;8.57;;;2.00;99.90;;;;;;4140073;28;20263;-45
2020/12/21 07:05:29;;;;;;;16.67;7.70;;;2.00;99.90;;;;;;4138608;28;20372;-45
2020/12/21 07:07:30;;;;;;;17.73;8.93;;;2.00;99.90;;;;;;4139216;28;20271;-49
2020/12/21 07:09:33;;;;;;;17.07;7.27;;;2.00;99.90;;;;;;4139128;28;20294;-46
2020/12/21 07:11:36;;;;;;;18.50;8.33;;;2.00;99.90;;;;;;4139246;28;20286;-42
2020/12/21 07:13:37;;;;;;;17.23;7.73;;;2.00;99.90;;;;;;4138667;28;20271;-49
2020/12/21 07:15:38;;;;;;;13.00;6.80;;;2.00;99.90;;;;;;4138128;28;20349;-48
2020/12/21 07:17:39;;;;;;;12.27;6.90;;;2.00;99.90;;;;;;4139147;28;20272;-47
2020/12/21 07:19:42;;;;;;;14.50;7.57;;;2.00;99.90;;;;;;4138314;28;20342;-45
2020/12/21 07:21:43;;;;;;;16.23;7.57;;;2.00;99.90;;;;;;4139819;28;20825;-49
2020/12/21 07:23:45;;;;;;;28.80;6.93;;;2.00;99.90;;;;;;4137799;28;20267;-46
2020/12/21 07:25:52;;;;;;;29.40;8.80;;;2.00;99.90;;;;;;4139084;28;20283;-46
2020/12/21 07:27:55;;;;;;;15.07;8.03;;;2.00;99.90;;;;;;4138387;28;20790;-47
2020/12/21 07:29:57;;;;;;;14.63;7.27;;;2.00;99.90;;;;;;4122619;28;20327;-43
2020/12/21 07:31:58;;;;;;;22.17;8.97;;;2.00;99.90;;;;;;4138326;28;20264;-49
2020/12/21 07:34:01;;;;;;;16.77;9.13;;;2.00;99.90;;;;;;4140355;28;20275;-49
2020/12/21 07:36:03;;;;;;;15.80;7.03;;;2.00;99.90;;;;;;4138336;28;20267;-41
2020/12/21 07:38:11;;;;;;;11.87;6.80;;;2.00;99.90;;;;;;4139694;28;21040;-47
2020/12/21 07:40:19;;;;;;;15.30;6.70;;;2.00;99.90;;;;;;4138287;28;20325;-44
2020/12/21 07:42:22;;;;;;;16.20;7.20;;;2.00;99.90;;;;;;4139855;28;20267;-43
2020/12/21 07:44:33;;;;;;;14.47;6.20;;;2.00;99.90;;;;;;4138235;28;20353;-45
2020/12/21 07:47:00;;;;;;;12.07;6.22;;;2.00;99.90;;;;;;4139359;28;21067;-46
2020/12/21 07:49:02;;;;;;;18.33;6.80;;;2.00;99.90;;;;;;4135309;28;20655;-50
2020/12/21 07:51:05;;;;;;;21.77;8.00;;;2.00;99.90;;;;;;4139638;28;20341;-46
2020/12/21 07:53:07;;;;;;;15.40;6.97;;;2.00;99.90;;;;;;4137985;28;20314;-44
2020/12/21 07:55:10;;;;;;;14.37;8.37;;;2.10;99.90;;;;;;4138974;28;20272;-57
2020/12/21 07:57:13;;;;;;;17.03;8.00;;;2.10;99.90;;;;;;4138834;28;20260;-49
2020/12/21 07:59:16;;;;;;;13.57;7.23;;;2.10;99.90;;;;;;4145086;28;20290;-45
2020/12/21 08:01:23;;;;;;;13.40;6.13;;;2.10;99.90;;;;;;4155176;28;20309;-44
2020/12/21 08:03:29;;;;;;;12.20;6.23;;;2.10;99.90;;;;;;4134927;28;20271;-43
2020/12/21 08:05:30;;;;;;;12.53;6.97;;;2.10;99.90;;;;;;4153923;28;20838;-45
2020/12/21 08:07:33;;;;;;;12.80;6.30;;;2.00;99.90;;;;;;4138391;28;20298;-44
2020/12/21 08:09:37;;;;;;;12.30;5.87;;;2.00;99.90;;;;;;4142042;28;20322;-52
2020/12/21 08:11:39;;;;;;;13.80;7.00;;;2.00;99.90;;;;;;4141019;28;20333;-43
2020/12/21 08:13:51;;;;;;;10.87;6.80;;;2.00;99.90;;;;;;4124717;28;20350;-55
2020/12/21 08:15:52;;;;;;;15.30;7.10;;;2.00;99.90;;;;;;4140643;28;20330;-47
2020/12/21 08:17:54;;;;;;;19.30;7.20;;;2.00;99.90;;;;;;4141666;28;20283;-52
2020/12/21 08:19:58;;;;;;;14.40;6.10;;;2.00;99.90;;;;;;4141105;28;20332;-54
2020/12/21 08:22:05;;;;;;;15.70;7.33;;;2.10;99.90;;;;;;4140003;28;20387;-49
2020/12/21 08:24:09;;;;;;;15.57;6.40;;;2.10;99.90;;;;;;4140032;28;20679;-56
2020/12/21 08:26:14;;;;;;;20.03;7.57;;;2.10;99.90;;;;;;4147839;28;20270;-44
2020/12/21 08:28:35;;;;;;;12.87;6.60;;;2.10;99.90;;;;;;4147107;28;20735;-56
2020/12/21 08:30:36;;;;;;;17.20;7.40;;;2.20;99.90;;;;;;4133568;28;20283;-52
2020/12/21 08:32:37;;;;;;;16.33;7.50;;;2.20;99.90;;;;;;4148799;28;20860;-53
2020/12/21 08:34:39;;;;;;;19.70;7.20;;;2.10;99.90;;;;;;4138098;28;20283;-42
2020/12/21 08:36:40;;;;;;;15.53;7.23;;;2.10;99.90;;;;;;4140206;28;20267;-48
2020/12/21 08:38:41;;;;;;;17.70;7.87;;;2.20;99.90;;;;;;4141360;28;20276;-48
2020/12/21 08:40:55;;;;;;;16.50;7.20;;;2.10;99.90;;;;;;4139967;28;20826;-47
2020/12/21 08:42:59;;;;;;;16.17;7.37;;;2.20;99.90;;;;;;4142134;28;20275;-46
2020/12/21 08:45:00;;;;;;;14.63;7.20;;;2.20;99.90;;;;;;4151314;28;20344;-50
2020/12/21 08:47:02;;;;;;;14.57;7.20;;;2.20;99.90;;;;;;4142849;28;20291;-39
2020/12/21 08:49:04;;;;;;;16.43;7.60;;;2.10;99.90;;;;;;4140310;28;20349;-43
2020/12/21 08:51:05;;;;;;;16.50;7.80;;;2.20;99.90;;;;;;4140673;28;20287;-48
2020/12/21 08:53:06;;;;;;;16.33;7.73;;;2.20;99.90;;;;;;4140270;28;20386;-51
2020/12/21 08:55:08;;;;;;;17.07;7.07;;;2.30;99.90;;;;;;4140754;28;20275;-50
2020/12/21 08:57:09;;;;;;;17.70;7.20;;;2.40;99.90;;;;;;4142504;28;20278;-42
2020/12/21 08:59:11;;;;;;;13.23;6.50;;;2.30;99.90;;;;;;4140086;28;20585;-55
2020/12/21 09:01:12;;;;;;;20.20;7.97;;;2.30;99.90;;;;;;4141204;28;20283;-53
2020/12/21 09:03:13;;;;;;;13.70;7.60;;;2.30;99.90;;;;;;4138843;28;20353;-50
2020/12/21 09:05:14;;;;;;;12.63;6.80;;;2.30;99.90;;;;;;4141888;28;20291;-45
2020/12/21 09:07:15;;;;;;;17.63;7.13;;;2.30;99.90;;;;;;4153507;28;20333;-48
2020/12/21 09:09:16;;;;;;;13.13;7.07;;;2.30;99.90;;;;;;4146336;28;20829;-58
2020/12/21 09:11:18;;;;;;;13.10;7.00;;;2.30;99.90;;;;;;4139298;28;20271;-48
2020/12/21 09:13:19;;;;;;;14.60;7.80;;;2.30;99.90;;;;;;4131341;28;20609;-50
2020/12/21 09:15:20;;;;;;;12.87;6.60;;;2.30;99.90;;;;;;4124234;28;20264;-50
2020/12/21 09:17:21;;;;;;;18.97;7.23;;;2.30;99.90;;;;;;4130410;28;20609;-48
2020/12/21 09:19:23;;;;;;;12.73;6.47;;;2.30;99.90;;;;;;4121885;28;20283;-43
2020/12/21 09:21:25;;;;;;;14.27;7.57;;;2.30;99.90;;;;;;4140102;28;20710;-59
2020/12/21 09:23:26;;;;;;;20.70;7.40;;;2.40;99.90;;;;;;4139422;28;20785;-48
2020/12/21 09:25:27;;;;;;;14.33;7.33;;;2.40;99.90;;;;;;4139633;28;20301;-49
2020/12/21 09:27:28;;;;;;;15.13;7.27;;;2.40;99.90;;;;;;4141048;28;20276;-60
2020/12/21 09:29:29;;;;;;;21.30;8.17;;;2.30;99.90;;;;;;4139441;28;21008;-47
2020/12/21 09:31:31;;;;;;;13.40;7.40;;;2.40;99.90;;;;;;4121628;28;20843;-44
2020/12/21 09:33:32;;;;;;;12.17;6.00;;;2.40;99.90;;;;;;4140095;28;20276;-42
2020/12/21 09:35:33;;;;;;;19.20;7.50;;;2.40;99.90;;;;;;4141981;28;20548;-51
2020/12/21 09:37:34;;;;;;;13.33;6.83;;;2.40;99.90;;;;;;4140041;28;20279;-41
2020/12/21 09:39:35;;;;;;;17.57;6.50;;;2.40;99.90;;;;;;4140182;28;20267;-48
2020/12/21 09:41:36;;;;;;;15.03;6.63;;;2.40;99.90;;;;;;4138793;28;20488;-39
2020/12/21 09:43:40;;;;;;;16.13;6.47;;;2.40;99.90;;;;;;4139183;28;20379;-52
2020/12/21 09:45:41;;;;;;;15.73;7.40;;;2.40;99.90;;;;;;4139470;28;20874;-39
2020/12/21 09:47:44;;;;;;;14.17;7.90;;;2.50;99.90;;;;;;4140120;28;20275;-59
2020/12/21 09:49:45;;;;;;;16.93;6.93;;;2.40;99.90;;;;;;4139506;28;20264;-44
2020/12/21 09:51:50;;;;;;;15.57;7.33;;;2.50;99.90;;;;;;4140018;28;20850;-61
2020/12/21 09:53:51;;;;;;;17.40;8.07;;;2.50;99.90;;;;;;4139389;28;20329;-42
2020/12/21 09:55:52;;;;;;;13.83;7.57;;;2.50;99.90;;;;;;4139279;28;20329;-43
2020/12/21 09:57:56;;;;;;;16.03;7.80;;;2.50;99.90;;;;;;4140141;28;20270;-49
2020/12/21 09:59:57;;;;;;;11.83;7.27;;;2.50;99.90;;;;;;4122326;28;20268;-46
2020/12/21 10:01:58;;;;;;;16.07;8.57;;;2.50;99.90;;;;;;4142981;28;20310;-48
2020/12/21 10:03:59;;;;;;;16.00;7.93;;;2.50;99.90;;;;;;4155676;28;20275;-41
2020/12/21 10:06:00;;;;;;;17.33;8.03;;;2.40;99.90;;;;;;4139889;28;20307;-51
2020/12/21 10:08:01;;;;;;;16.27;8.70;;;2.40;99.90;;;;;;4139993;28;20727;-43
2020/12/21 10:10:03;;;;;;;17.03;8.13;;;2.40;99.90;;;;;;4139829;28;20310;-43
2020/12/21 10:12:04;;;;;;;18.97;9.67;;;2.40;99.90;;;;;;4138785;28;20613;-41
2020/12/21 10:14:05;;;;;;;18.43;9.20;;;2.30;99.90;;;;;;4140358;28;20850;-41
2020/12/21 10:16:06;;;;;;;16.87;7.90;;;2.40;99.90;;;;;;4138588;28;20276;-38
2020/12/21 10:18:08;;;;;;;15.83;7.63;;;2.40;99.90;;;;;;4139918;28;20267;-39
2020/12/21 10:20:09;;;;;;;16.90;8.67;;;2.40;99.90;;;;;;4139125;28;20346;-45
2020/12/21 10:22:10;;;;;;;23.13;8.20;;;2.40;99.90;;;;;;4141140;28;20329;-39
2020/12/21 10:24:11;;;;;;;16.73;8.67;;;2.50;99.90;;;;;;4151855;28;20267;-45
2020/12/21 10:26:12;;;;;;;21.13;7.87;;;2.50;99.90;;;;;;4149258;28;20303;-40
2020/12/21 10:28:14;;;;;;;21.43;9.97;;;2.50;99.90;;;;;;4140329;28;20333;-47
2020/12/21 10:30:16;;;;;;;18.90;9.20;;;2.50;99.90;;;;;;4138049;28;20283;-43
2020/12/21 10:32:17;;;;;;;17.80;9.40;;;2.60;99.90;;;;;;4140154;28;21141;-37
2020/12/21 10:34:18;;;;;;;20.30;9.00;;;2.60;99.90;;;;;;4138507;28;20313;-45
2020/12/21 10:36:19;;;;;;;21.73;10.00;;;2.60;99.90;;;;;;4140626;28;20707;-41